sensor_id;sensor_type;location;lat;lon;timestamp;pressure;altitude;pressure_sealevel;temperature;humidity
8051;BME280;4068;42.158;24.732;2022-10-18T00:00:51;101351.16;;;5.87;100.00
8051;BME280;4068;42.158;24.732;2022-10-18T00:03:16;101348.47;;;5.90;100.00
8051;BME280;4068;42.158;24.732;2022-10-18T00:05:42;101346.72;;;5.89;100.00
8051;BME280;4068;42.158;24.732;2022-10-18T00:08:07;101314.00;;;5.69;100.00
8051;BME280;4068;42.158;24.732;2022-10-18T00:10:33;101350.22;;;5.90;100.00
8051;BME280;4068;42.158;24.732;2022-10-18T00:12:58;101345.91;;;5.87;100.00
8051;BME280;4068;42.158;24.732;2022-10-18T00:15:24;101307.19;;;5.62;100.00
8051;BME280;4068;42.158;24.732;2022-10-18T00:17:49;101341.75;;;5.80;100.00
8051;BME280;4068;42.158;24.732;2022-10-18T00:20:15;101316.47;;;5.74;100.00
8051;BME280;4068;42.158;24.732;2022-10-18T00:22:40;101332.78;;;5.85;100.00
8051;BME280;4068;42.158;24.732;2022-10-18T00:25:07;101313.16;;;5.69;100.00
8051;BME280;4068;42.158;24.732;2022-10-18T00:27:34;101315.78;;;5.69;100.00
8051;BME280;4068;42.158;24.732;2022-10-18T00:29:59;101322.63;;;5.75;100.00
8051;BME280;4068;42.158;24.732;2022-10-18T00:32:25;101324.28;;;5.77;100.00
8051;BME280;4068;42.158;24.732;2022-10-18T00:34:51;101312.88;;;5.77;100.00
8051;BME280;4068;42.158;24.732;2022-10-18T00:37:16;101301.69;;;5.70;100.00
8051;BME280;4068;42.158;24.732;2022-10-18T00:39:42;101323.41;;;5.77;100.00
8051;BME280;4068;42.158;24.732;2022-10-18T00:42:16;101321.78;;;5.73;100.00
8051;BME280;4068;42.158;24.732;2022-10-18T00:47:08;101320.09;;;5.72;100.00
8051;BME280;4068;42.158;24.732;2022-10-18T00:49:38;101321.00;;;5.70;100.00
8051;BME280;4068;42.158;24.732;2022-10-18T00:52:49;101295.78;;;5.63;100.00
8051;BME280;4068;42.158;24.732;2022-10-18T00:54:55;101321.69;;;5.76;100.00
8051;BME280;4068;42.158;24.732;2022-10-18T00:57:22;101324.38;;;5.74;100.00
8051;BME280;4068;42.158;24.732;2022-10-18T00:59:48;101286.56;;;5.48;100.00
8051;BME280;4068;42.158;24.732;2022-10-18T01:02:14;101285.66;;;5.49;100.00
8051;BME280;4068;42.158;24.732;2022-10-18T01:04:44;101298.56;;;5.57;100.00
8051;BME280;4068;42.158;24.732;2022-10-18T01:18:47;101300.50;;;5.52;100.00
8051;BME280;4068;42.158;24.732;2022-10-18T01:24:01;101291.84;;;5.48;100.00
8051;BME280;4068;42.158;24.732;2022-10-18T01:27:13;101292.00;;;5.44;100.00
8051;BME280;4068;42.158;24.732;2022-10-18T01:32:33;101294.03;;;5.34;100.00
8051;BME280;4068;42.158;24.732;2022-10-18T01:35:02;101293.38;;;5.27;100.00
8051;BME280;4068;42.158;24.732;2022-10-18T01:37:30;101291.81;;;5.22;100.00
8051;BME280;4068;42.158;24.732;2022-10-18T01:39:58;101279.00;;;5.09;100.00
8051;BME280;4068;42.158;24.732;2022-10-18T01:42:25;101290.22;;;5.16;100.00
8051;BME280;4068;42.158;24.732;2022-10-18T01:44:51;101281.63;;;5.09;100.00
8051;BME280;4068;42.158;24.732;2022-10-18T01:47:18;101263.59;;;4.97;100.00
8051;BME280;4068;42.158;24.732;2022-10-18T01:49:44;101288.75;;;5.06;100.00
8051;BME280;4068;42.158;24.732;2022-10-18T01:52:14;101295.53;;;5.13;100.00
8051;BME280;4068;42.158;24.732;2022-10-18T01:54:43;101267.06;;;4.99;100.00
8051;BME280;4068;42.158;24.732;2022-10-18T02:00:21;101293.84;;;5.12;100.00
8051;BME280;4068;42.158;24.732;2022-10-18T02:07:57;101277.53;;;5.00;100.00
8051;BME280;4068;42.158;24.732;2022-10-18T02:10:32;101286.34;;;4.98;100.00
8051;BME280;4068;42.158;24.732;2022-10-18T02:12:58;101258.66;;;4.86;100.00
8051;BME280;4068;42.158;24.732;2022-10-18T02:15:35;101276.88;;;4.92;100.00
8051;BME280;4068;42.158;24.732;2022-10-18T02:18:05;101261.00;;;4.95;100.00
8051;BME280;4068;42.158;24.732;2022-10-18T02:20:33;101264.47;;;4.96;100.00
8051;BME280;4068;42.158;24.732;2022-10-18T02:23:01;101259.28;;;4.94;100.00
8051;BME280;4068;42.158;24.732;2022-10-18T02:25:30;101258.56;;;4.89;100.00
8051;BME280;4068;42.158;24.732;2022-10-18T02:27:56;101276.03;;;4.90;100.00
8051;BME280;4068;42.158;24.732;2022-10-18T02:30:28;101265.81;;;4.81;100.00
8051;BME280;4068;42.158;24.732;2022-10-18T02:33:01;101252.22;;;4.66;100.00
8051;BME280;4068;42.158;24.732;2022-10-18T02:35:30;101279.09;;;4.76;100.00
8051;BME280;4068;42.158;24.732;2022-10-18T02:37:59;101280.09;;;4.72;100.00
8051;BME280;4068;42.158;24.732;2022-10-18T02:40:25;101274.13;;;4.65;100.00
8051;BME280;4068;42.158;24.732;2022-10-18T02:42:57;101279.47;;;4.62;100.00
8051;BME280;4068;42.158;24.732;2022-10-18T02:45:23;101247.72;;;4.39;100.00
8051;BME280;4068;42.158;24.732;2022-10-18T02:47:49;101245.22;;;4.34;100.00
8051;BME280;4068;42.158;24.732;2022-10-18T02:50:15;101247.81;;;4.36;100.00
8051;BME280;4068;42.158;24.732;2022-10-18T02:52:41;101284.97;;;4.53;100.00
8051;BME280;4068;42.158;24.732;2022-10-18T02:55:07;101286.00;;;4.47;100.00
8051;BME280;4068;42.158;24.732;2022-10-18T02:57:33;101289.34;;;4.54;100.00
8051;BME280;4068;42.158;24.732;2022-10-18T02:59:59;101259.16;;;4.38;100.00
8051;BME280;4068;42.158;24.732;2022-10-18T03:02:25;101281.38;;;4.57;100.00
8051;BME280;4068;42.158;24.732;2022-10-18T03:04:50;101261.72;;;4.39;100.00
8051;BME280;4068;42.158;24.732;2022-10-18T03:07:16;101267.78;;;4.41;100.00
8051;BME280;4068;42.158;24.732;2022-10-18T03:09:41;101286.00;;;4.47;100.00
8051;BME280;4068;42.158;24.732;2022-10-18T03:12:07;101304.38;;;4.49;100.00
8051;BME280;4068;42.158;24.732;2022-10-18T03:14:32;101296.50;;;4.47;100.00
8051;BME280;4068;42.158;24.732;2022-10-18T03:16:58;101305.41;;;4.43;100.00
8051;BME280;4068;42.158;24.732;2022-10-18T03:19:23;101296.69;;;4.41;100.00
8051;BME280;4068;42.158;24.732;2022-10-18T03:21:48;101268.94;;;4.31;100.00
8051;BME280;4068;42.158;24.732;2022-10-18T03:24:14;101308.09;;;4.42;100.00
8051;BME280;4068;42.158;24.732;2022-10-18T03:26:39;101195.78;;;3.84;100.00
8051;BME280;4068;42.158;24.732;2022-10-18T03:29:05;101295.97;;;4.36;100.00
8051;BME280;4068;42.158;24.732;2022-10-18T03:31:31;101273.31;;;4.32;100.00
8051;BME280;4068;42.158;24.732;2022-10-18T03:33:56;101300.06;;;4.46;100.00
8051;BME280;4068;42.158;24.732;2022-10-18T03:36:21;101296.47;;;4.51;100.00
8051;BME280;4068;42.158;24.732;2022-10-18T03:38:47;101306.56;;;4.66;100.00
8051;BME280;4068;42.158;24.732;2022-10-18T03:41:12;101303.59;;;4.77;100.00
8051;BME280;4068;42.158;24.732;2022-10-18T03:43:38;101262.97;;;4.57;100.00
8051;BME280;4068;42.158;24.732;2022-10-18T03:46:03;101305.94;;;4.88;100.00
8051;BME280;4068;42.158;24.732;2022-10-18T03:48:29;101300.00;;;4.81;100.00
8051;BME280;4068;42.158;24.732;2022-10-18T03:50:54;101297.59;;;4.73;100.00
8051;BME280;4068;42.158;24.732;2022-10-18T03:53:20;101272.91;;;4.46;100.00
8051;BME280;4068;42.158;24.732;2022-10-18T03:55:50;101307.41;;;4.66;100.00
8051;BME280;4068;42.158;24.732;2022-10-18T03:58:15;101286.84;;;4.49;100.00
8051;BME280;4068;42.158;24.732;2022-10-18T04:00:41;101306.56;;;4.64;100.00
8051;BME280;4068;42.158;24.732;2022-10-18T04:03:06;101314.44;;;4.64;100.00
8051;BME280;4068;42.158;24.732;2022-10-18T04:05:31;101301.63;;;4.54;100.00
8051;BME280;4068;42.158;24.732;2022-10-18T04:07:58;101298.16;;;4.52;100.00
8051;BME280;4068;42.158;24.732;2022-10-18T04:10:24;101284.25;;;4.48;100.00
8051;BME280;4068;42.158;24.732;2022-10-18T04:12:49;101303.22;;;4.59;100.00
8051;BME280;4068;42.158;24.732;2022-10-18T04:15:15;101266.84;;;4.44;100.00
8051;BME280;4068;42.158;24.732;2022-10-18T04:17:40;101304.78;;;4.66;100.00
8051;BME280;4068;42.158;24.732;2022-10-18T04:20:06;101284.25;;;4.48;100.00
8051;BME280;4068;42.158;24.732;2022-10-18T04:22:32;101284.31;;;4.46;100.00
8051;BME280;4068;42.158;24.732;2022-10-18T04:24:57;101297.13;;;4.57;100.00
8051;BME280;4068;42.158;24.732;2022-10-18T04:27:23;101288.44;;;4.55;100.00
8051;BME280;4068;42.158;24.732;2022-10-18T04:29:48;101283.00;;;4.61;100.00
8051;BME280;4068;42.158;24.732;2022-10-18T04:32:14;101280.38;;;4.61;100.00
8051;BME280;4068;42.158;24.732;2022-10-18T04:34:39;101277.84;;;4.58;100.00
8051;BME280;4068;42.158;24.732;2022-10-18T04:37:04;101295.25;;;4.62;100.00
8051;BME280;4068;42.158;24.732;2022-10-18T04:39:30;101259.00;;;4.42;100.00
8051;BME280;4068;42.158;24.732;2022-10-18T04:41:55;101303.94;;;4.64;100.00
8051;BME280;4068;42.158;24.732;2022-10-18T04:44:21;101306.22;;;4.77;100.00
8051;BME280;4068;42.158;24.732;2022-10-18T04:46:46;101280.78;;;4.77;100.00
8051;BME280;4068;42.158;24.732;2022-10-18T04:49:12;101266.16;;;4.69;100.00
8051;BME280;4068;42.158;24.732;2022-10-18T04:51:37;101271.56;;;4.64;100.00
8051;BME280;4068;42.158;24.732;2022-10-18T04:54:02;101271.63;;;4.61;100.00
8051;BME280;4068;42.158;24.732;2022-10-18T04:56:28;101307.88;;;4.81;100.00
8051;BME280;4068;42.158;24.732;2022-10-18T04:58:53;101277.50;;;4.71;100.00
8051;BME280;4068;42.158;24.732;2022-10-18T05:01:19;101270.47;;;4.71;100.00
8051;BME280;4068;42.158;24.732;2022-10-18T05:03:44;101264.22;;;4.75;100.00
8051;BME280;4068;42.158;24.732;2022-10-18T05:06:10;101305.56;;;5.00;100.00
8051;BME280;4068;42.158;24.732;2022-10-18T05:08:35;101296.69;;;5.04;100.00
8051;BME280;4068;42.158;24.732;2022-10-18T05:11:02;101287.69;;;5.11;100.00
8051;BME280;4068;42.158;24.732;2022-10-18T05:13:28;101302.31;;;5.22;100.00
8051;BME280;4068;42.158;24.732;2022-10-18T05:15:54;101297.75;;;5.27;100.00
8051;BME280;4068;42.158;24.732;2022-10-18T05:18:20;101301.22;;;5.29;100.00
8051;BME280;4068;42.158;24.732;2022-10-18T05:20:46;101282.97;;;5.23;100.00
8051;BME280;4068;42.158;24.732;2022-10-18T05:23:11;101302.88;;;5.31;100.00
8051;BME280;4068;42.158;24.732;2022-10-18T05:25:43;101305.44;;;5.34;100.00
8051;BME280;4068;42.158;24.732;2022-10-18T05:28:08;101301.63;;;5.45;100.00
8051;BME280;4068;42.158;24.732;2022-10-18T05:30:38;101289.09;;;5.51;100.00
8051;BME280;4068;42.158;24.732;2022-10-18T05:33:04;101305.19;;;5.70;100.00
8051;BME280;4068;42.158;24.732;2022-10-18T05:35:30;101309.28;;;5.79;100.00
8051;BME280;4068;42.158;24.732;2022-10-18T05:37:56;101312.78;;;5.80;100.00
8051;BME280;4068;42.158;24.732;2022-10-18T05:40:21;101288.38;;;5.75;100.00
8051;BME280;4068;42.158;24.732;2022-10-18T05:42:46;101306.31;;;5.90;100.00
8051;BME280;4068;42.158;24.732;2022-10-18T05:45:12;101318.34;;;5.99;100.00
8051;BME280;4068;42.158;24.732;2022-10-18T05:47:37;101316.28;;;6.09;100.00
8051;BME280;4068;42.158;24.732;2022-10-18T05:50:03;101317.75;;;6.17;100.00
8051;BME280;4068;42.158;24.732;2022-10-18T05:52:28;101292.06;;;5.97;100.00
8051;BME280;4068;42.158;24.732;2022-10-18T05:54:54;101317.97;;;6.36;100.00
8051;BME280;4068;42.158;24.732;2022-10-18T05:57:19;101317.66;;;6.46;100.00
8051;BME280;4068;42.158;24.732;2022-10-18T05:59:44;101326.91;;;6.57;100.00
8051;BME280;4068;42.158;24.732;2022-10-18T06:02:11;101299.47;;;6.63;100.00
8051;BME280;4068;42.158;24.732;2022-10-18T06:04:36;101313.69;;;6.83;100.00
8051;BME280;4068;42.158;24.732;2022-10-18T06:07:02;101307.59;;;6.81;100.00
8051;BME280;4068;42.158;24.732;2022-10-18T06:09:28;101313.16;;;6.97;100.00
8051;BME280;4068;42.158;24.732;2022-10-18T06:11:55;101313.34;;;7.16;100.00
8051;BME280;4068;42.158;24.732;2022-10-18T06:14:21;101317.28;;;7.28;100.00
8051;BME280;4068;42.158;24.732;2022-10-18T06:16:47;101304.72;;;7.34;100.00
8051;BME280;4068;42.158;24.732;2022-10-18T06:19:12;101323.16;;;7.58;100.00
8051;BME280;4068;42.158;24.732;2022-10-18T06:21:38;101325.06;;;7.76;100.00
8051;BME280;4068;42.158;24.732;2022-10-18T06:24:04;101325.53;;;7.86;100.00
8051;BME280;4068;42.158;24.732;2022-10-18T06:26:29;101327.69;;;7.99;100.00
8051;BME280;4068;42.158;24.732;2022-10-18T06:28:54;101309.25;;;7.97;100.00
8051;BME280;4068;42.158;24.732;2022-10-18T06:31:20;101313.72;;;8.17;100.00
8051;BME280;4068;42.158;24.732;2022-10-18T06:33:46;101290.19;;;8.11;100.00
8051;BME280;4068;42.158;24.732;2022-10-18T06:36:16;101333.72;;;8.43;100.00
8051;BME280;4068;42.158;24.732;2022-10-18T06:38:42;101325.38;;;8.54;100.00
8051;BME280;4068;42.158;24.732;2022-10-18T06:41:07;101327.94;;;8.76;100.00
8051;BME280;4068;42.158;24.732;2022-10-18T06:43:34;101322.25;;;8.86;100.00
8051;BME280;4068;42.158;24.732;2022-10-18T06:46:01;101315.66;;;8.94;100.00
8051;BME280;4068;42.158;24.732;2022-10-18T06:48:27;101322.69;;;9.14;100.00
8051;BME280;4068;42.158;24.732;2022-10-18T06:50:58;101329.06;;;9.10;100.00
8051;BME280;4068;42.158;24.732;2022-10-18T06:53:25;101326.78;;;9.22;100.00
8051;BME280;4068;42.158;24.732;2022-10-18T06:55:51;101316.47;;;9.35;100.00
8051;BME280;4068;42.158;24.732;2022-10-18T06:58:17;101290.06;;;9.33;100.00
8051;BME280;4068;42.158;24.732;2022-10-18T07:00:42;101311.44;;;9.66;98.09
8051;BME280;4068;42.158;24.732;2022-10-18T07:03:10;101329.34;;;9.79;97.81
8051;BME280;4068;42.158;24.732;2022-10-18T07:05:35;101308.81;;;9.84;96.19
8051;BME280;4068;42.158;24.732;2022-10-18T07:08:01;101314.44;;;9.95;94.82
8051;BME280;4068;42.158;24.732;2022-10-18T07:10:26;101306.66;;;9.92;95.21
8051;BME280;4068;42.158;24.732;2022-10-18T07:12:51;101319.22;;;10.24;94.60
8051;BME280;4068;42.158;24.732;2022-10-18T07:15:17;101314.00;;;10.40;92.95
8051;BME280;4068;42.158;24.732;2022-10-18T07:17:43;101305.34;;;10.36;92.92
8051;BME280;4068;42.158;24.732;2022-10-18T07:20:12;101317.50;;;10.58;93.02
8051;BME280;4068;42.158;24.732;2022-10-18T07:22:37;101278.81;;;10.53;92.12
8051;BME280;4068;42.158;24.732;2022-10-18T07:25:05;101298.63;;;10.80;90.78
8051;BME280;4068;42.158;24.732;2022-10-18T07:27:30;101297.09;;;10.76;90.54
8051;BME280;4068;42.158;24.732;2022-10-18T07:29:56;101305.16;;;10.90;90.86
8051;BME280;4068;42.158;24.732;2022-10-18T07:32:21;101270.44;;;10.95;90.59
8051;BME280;4068;42.158;24.732;2022-10-18T07:34:47;101258.44;;;11.03;89.67
8051;BME280;4068;42.158;24.732;2022-10-18T07:37:12;101289.28;;;11.38;88.83
8051;BME280;4068;42.158;24.732;2022-10-18T07:39:37;101264.28;;;11.26;87.51
8051;BME280;4068;42.158;24.732;2022-10-18T07:42:03;101263.47;;;11.40;88.71
8051;BME280;4068;42.158;24.732;2022-10-18T07:44:28;101264.34;;;11.56;88.30
8051;BME280;4068;42.158;24.732;2022-10-18T07:46:53;101268.41;;;11.78;86.74
8051;BME280;4068;42.158;24.732;2022-10-18T07:49:19;101246.06;;;11.66;85.98
8051;BME280;4068;42.158;24.732;2022-10-18T07:51:44;101252.53;;;11.77;86.87
8051;BME280;4068;42.158;24.732;2022-10-18T07:54:10;101261.22;;;12.11;86.42
8051;BME280;4068;42.158;24.732;2022-10-18T07:56:35;101254.69;;;12.31;85.10
8051;BME280;4068;42.158;24.732;2022-10-18T07:59:01;101220.69;;;12.21;84.73
8051;BME280;4068;42.158;24.732;2022-10-18T08:01:27;101257.13;;;12.64;84.17
8051;BME280;4068;42.158;24.732;2022-10-18T08:03:52;101256.72;;;12.70;83.56
8051;BME280;4068;42.158;24.732;2022-10-18T08:06:19;101246.75;;;12.88;82.98
8051;BME280;4068;42.158;24.732;2022-10-18T08:08:45;101215.69;;;13.02;81.05
8051;BME280;4068;42.158;24.732;2022-10-18T08:11:23;101243.63;;;13.23;81.24
8051;BME280;4068;42.158;24.732;2022-10-18T08:13:49;101243.63;;;13.23;81.43
8051;BME280;4068;42.158;24.732;2022-10-18T08:16:20;101236.91;;;13.45;81.34
8051;BME280;4068;42.158;24.732;2022-10-18T08:18:46;101244.66;;;13.62;79.04
8051;BME280;4068;42.158;24.732;2022-10-18T08:21:13;101242.94;;;13.61;77.82
8051;BME280;4068;42.158;24.732;2022-10-18T08:23:40;101216.19;;;13.63;78.42
8051;BME280;4068;42.158;24.732;2022-10-18T08:26:14;101231.50;;;13.87;77.99
8051;BME280;4068;42.158;24.732;2022-10-18T08:28:40;101229.03;;;13.84;78.88
8051;BME280;4068;42.158;24.732;2022-10-18T08:31:08;101218.19;;;14.00;77.92
8051;BME280;4068;42.158;24.732;2022-10-18T08:33:35;101223.66;;;14.11;77.83
8051;BME280;4068;42.158;24.732;2022-10-18T08:36:02;101211.03;;;14.26;76.30
8051;BME280;4068;42.158;24.732;2022-10-18T08:38:35;101200.34;;;14.39;75.26
8051;BME280;4068;42.158;24.732;2022-10-18T08:43:51;101196.94;;;14.49;74.67
8051;BME280;4068;42.158;24.732;2022-10-18T08:46:20;101197.22;;;14.58;74.44
8051;BME280;4068;42.158;24.732;2022-10-18T08:48:50;101169.38;;;14.62;74.37
8051;BME280;4068;42.158;24.732;2022-10-18T08:54:09;101172.97;;;14.87;73.68
8051;BME280;4068;42.158;24.732;2022-10-18T08:56:37;101152.22;;;14.90;73.78
8051;BME280;4068;42.158;24.732;2022-10-18T08:59:08;101169.22;;;15.13;73.15
8051;BME280;4068;42.158;24.732;2022-10-18T09:09:38;101167.38;;;15.62;72.25
8051;BME280;4068;42.158;24.732;2022-10-18T09:13:00;101162.38;;;15.82;71.06
8051;BME280;4068;42.158;24.732;2022-10-18T09:18:26;101148.75;;;15.85;71.13
8051;BME280;4068;42.158;24.732;2022-10-18T09:20:58;101152.88;;;15.89;72.42
8051;BME280;4068;42.158;24.732;2022-10-18T09:23:43;101151.31;;;15.98;70.77
8051;BME280;4068;42.158;24.732;2022-10-18T09:26:23;101151.31;;;15.98;70.22
8051;BME280;4068;42.158;24.732;2022-10-18T09:29:12;101144.63;;;15.92;70.28
8051;BME280;4068;42.158;24.732;2022-10-18T09:34:33;101109.09;;;15.90;69.73
8051;BME280;4068;42.158;24.732;2022-10-18T09:37:01;101099.84;;;15.94;69.34
8051;BME280;4068;42.158;24.732;2022-10-18T09:39:34;101120.19;;;16.19;69.85
8051;BME280;4068;42.158;24.732;2022-10-18T09:42:24;101114.72;;;16.32;69.38
8051;BME280;4068;42.158;24.732;2022-10-18T09:45:04;101093.53;;;16.41;68.47
8051;BME280;4068;42.158;24.732;2022-10-18T09:47:36;101109.47;;;16.53;68.11
8051;BME280;4068;42.158;24.732;2022-10-18T09:50:24;101102.53;;;16.51;68.30
8051;BME280;4068;42.158;24.732;2022-10-18T09:53:05;101097.53;;;16.58;67.78
8051;BME280;4068;42.158;24.732;2022-10-18T09:55:41;101085.81;;;16.59;67.51
8051;BME280;4068;42.158;24.732;2022-10-18T09:58:14;101088.13;;;16.74;66.64
8051;BME280;4068;42.158;24.732;2022-10-18T10:00:46;101086.00;;;16.78;66.14
8051;BME280;4068;42.158;24.732;2022-10-18T10:03:12;101060.63;;;16.50;66.14
8051;BME280;4068;42.158;24.732;2022-10-18T10:05:39;101071.81;;;16.66;66.56
8051;BME280;4068;42.158;24.732;2022-10-18T10:08:05;101065.31;;;16.80;66.50
8051;BME280;4068;42.158;24.732;2022-10-18T10:10:31;101056.41;;;16.91;66.47
8051;BME280;4068;42.158;24.732;2022-10-18T10:15:31;101055.22;;;17.16;65.96
8051;BME280;4068;42.158;24.732;2022-10-18T10:18:01;101048.47;;;17.22;64.90
8051;BME280;4068;42.158;24.732;2022-10-18T10:20:33;101043.56;;;17.27;64.32
8051;BME280;4068;42.158;24.732;2022-10-18T10:23:08;101044.50;;;17.37;63.80
8051;BME280;4068;42.158;24.732;2022-10-18T10:25:39;101032.69;;;17.50;63.11
8051;BME280;4068;42.158;24.732;2022-10-18T10:28:17;101003.41;;;17.37;62.38
8051;BME280;4068;42.158;24.732;2022-10-18T10:30:44;100998.91;;;17.37;62.48
8051;BME280;4068;42.158;24.732;2022-10-18T10:35:58;101007.78;;;17.59;61.61
8051;BME280;4068;42.158;24.732;2022-10-18T10:38:27;100998.56;;;17.52;61.95
8051;BME280;4068;42.158;24.732;2022-10-18T10:40:53;100987.66;;;17.74;60.97
8051;BME280;4068;42.158;24.732;2022-10-18T10:43:24;100969.88;;;17.83;59.49
8051;BME280;4068;42.158;24.732;2022-10-18T10:48:31;100953.44;;;17.98;58.28
8051;BME280;4068;42.158;24.732;2022-10-18T10:51:08;100964.81;;;17.90;57.78
8051;BME280;4068;42.158;24.732;2022-10-18T10:53:38;100949.03;;;17.66;58.68
8051;BME280;4068;42.158;24.732;2022-10-18T10:56:15;100935.16;;;17.82;58.85
8051;BME280;4068;42.158;24.732;2022-10-18T10:58:41;100934.66;;;17.98;57.61
8051;BME280;4068;42.158;24.732;2022-10-18T11:01:23;100903.06;;;17.90;57.29
8051;BME280;4068;42.158;24.732;2022-10-18T11:03:54;100921.78;;;18.01;56.52
8051;BME280;4068;42.158;24.732;2022-10-18T11:06:43;100923.38;;;18.14;56.24
8051;BME280;4068;42.158;24.732;2022-10-18T11:12:22;100908.25;;;18.32;56.40
8051;BME280;4068;42.158;24.732;2022-10-18T11:15:06;100906.41;;;18.42;56.68
8051;BME280;4068;42.158;24.732;2022-10-18T11:17:58;100902.31;;;18.58;56.49
8051;BME280;4068;42.158;24.732;2022-10-18T11:20:32;100873.88;;;18.65;55.00
8051;BME280;4068;42.158;24.732;2022-10-18T11:23:05;100868.78;;;18.72;54.54
8051;BME280;4068;42.158;24.732;2022-10-18T11:26:02;100870.72;;;18.99;53.37
8051;BME280;4068;42.158;24.732;2022-10-18T11:31:26;100849.09;;;18.91;52.21
8051;BME280;4068;42.158;24.732;2022-10-18T11:44:53;100799.44;;;18.85;46.98
8051;BME280;4068;42.158;24.732;2022-10-18T11:50:33;100814.41;;;19.07;48.13
8051;BME280;4068;42.158;24.732;2022-10-18T11:55:52;100809.66;;;19.19;45.01
8051;BME280;4068;42.158;24.732;2022-10-18T12:04:19;100800.66;;;19.10;41.54
8051;BME280;4068;42.158;24.732;2022-10-18T12:06:50;100802.69;;;19.26;38.89
8051;BME280;4068;42.158;24.732;2022-10-18T12:12:06;100789.25;;;19.26;37.58
8051;BME280;4068;42.158;24.732;2022-10-18T12:14:39;100783.22;;;19.14;36.43
8051;BME280;4068;42.158;24.732;2022-10-18T12:17:15;100753.91;;;18.93;35.87
8051;BME280;4068;42.158;24.732;2022-10-18T12:19:44;100779.00;;;19.12;35.58
8051;BME280;4068;42.158;24.732;2022-10-18T12:22:45;100749.25;;;18.86;36.49
8051;BME280;4068;42.158;24.732;2022-10-18T12:25:12;100763.00;;;19.10;36.28
8051;BME280;4068;42.158;24.732;2022-10-18T12:33:12;100705.09;;;18.88;33.52
8051;BME280;4068;42.158;24.732;2022-10-18T12:38:37;100744.75;;;19.32;31.48
8051;BME280;4068;42.158;24.732;2022-10-18T12:41:05;100752.84;;;19.32;31.37
8051;BME280;4068;42.158;24.732;2022-10-18T12:43:32;100744.09;;;19.30;31.99
8051;BME280;4068;42.158;24.732;2022-10-18T12:46:03;100741.72;;;19.27;33.04
8051;BME280;4068;42.158;24.732;2022-10-18T12:48:34;100742.78;;;19.34;33.07
8051;BME280;4068;42.158;24.732;2022-10-18T12:53:42;100711.16;;;19.18;32.67
8051;BME280;4068;42.158;24.732;2022-10-18T12:56:42;100726.09;;;19.30;33.18
8051;BME280;4068;42.158;24.732;2022-10-18T13:15:40;100700.41;;;19.18;33.99
8051;BME280;4068;42.158;24.732;2022-10-18T13:21:19;100695.19;;;19.17;33.61
8051;BME280;4068;42.158;24.732;2022-10-18T13:32:35;100693.34;;;19.17;32.44
8051;BME280;4068;42.158;24.732;2022-10-18T13:38:35;100683.19;;;19.11;32.10
8051;BME280;4068;42.158;24.732;2022-10-18T13:41:05;100676.81;;;19.12;32.77
8051;BME280;4068;42.158;24.732;2022-10-18T13:43:58;100679.22;;;19.15;32.63
8051;BME280;4068;42.158;24.732;2022-10-18T14:11:04;100643.09;;;19.00;34.13
8051;BME280;4068;42.158;24.732;2022-10-18T14:13:53;100645.72;;;18.91;34.39
8051;BME280;4068;42.158;24.732;2022-10-18T14:16:33;100642.72;;;18.85;35.26
8051;BME280;4068;42.158;24.732;2022-10-18T14:24:32;100627.03;;;18.62;36.57
8051;BME280;4068;42.158;24.732;2022-10-18T14:27:23;100631.09;;;18.66;36.84
8051;BME280;4068;42.158;24.732;2022-10-18T14:29:50;100612.50;;;18.55;37.25
8051;BME280;4068;42.158;24.732;2022-10-18T14:32:31;100582.00;;;18.46;37.72
8051;BME280;4068;42.158;24.732;2022-10-18T14:34:57;100612.81;;;18.52;38.01
8051;BME280;4068;42.158;24.732;2022-10-18T14:37:34;100609.84;;;18.45;38.30
8051;BME280;4068;42.158;24.732;2022-10-18T14:40:01;100621.34;;;18.37;38.87
8051;BME280;4068;42.158;24.732;2022-10-18T14:42:27;100610.50;;;18.29;39.28
8051;BME280;4068;42.158;24.732;2022-10-18T14:44:54;100612.25;;;18.20;40.17
8051;BME280;4068;42.158;24.732;2022-10-18T14:49:46;100575.47;;;17.83;41.28
8051;BME280;4068;42.158;24.732;2022-10-18T14:52:33;100600.88;;;17.89;41.92
8051;BME280;4068;42.158;24.732;2022-10-18T14:54:59;100596.50;;;17.78;41.90
8051;BME280;4068;42.158;24.732;2022-10-18T14:57:33;100566.34;;;17.47;42.30
8051;BME280;4068;42.158;24.732;2022-10-18T15:00:07;100592.31;;;17.56;42.87
8051;BME280;4068;42.158;24.732;2022-10-18T15:02:37;100583.72;;;17.42;43.10
8051;BME280;4068;42.158;24.732;2022-10-18T15:07:41;100585.84;;;17.29;42.91
8051;BME280;4068;42.158;24.732;2022-10-18T15:10:14;100586.97;;;17.17;42.98
8051;BME280;4068;42.158;24.732;2022-10-18T15:12:42;100594.47;;;17.13;43.15
8051;BME280;4068;42.158;24.732;2022-10-18T15:15:24;100588.38;;;17.01;43.14
8051;BME280;4068;42.158;24.732;2022-10-18T15:17:51;100578.59;;;16.81;43.68
8051;BME280;4068;42.158;24.732;2022-10-18T15:20:29;100551.22;;;16.58;43.92
8051;BME280;4068;42.158;24.732;2022-10-18T15:23:26;100583.91;;;16.61;44.28
8051;BME280;4068;42.158;24.732;2022-10-18T15:25:59;100587.41;;;16.42;45.05
8051;BME280;4068;42.158;24.732;2022-10-18T15:28:43;100555.31;;;16.11;45.46
8051;BME280;4068;42.158;24.732;2022-10-18T15:31:22;100583.75;;;16.12;46.09
8051;BME280;4068;42.158;24.732;2022-10-18T15:33:48;100587.22;;;16.03;46.47
8051;BME280;4068;42.158;24.732;2022-10-18T15:36:28;100567.00;;;15.79;47.07
8051;BME280;4068;42.158;24.732;2022-10-18T15:39:25;100572.94;;;15.71;48.03
8051;BME280;4068;42.158;24.732;2022-10-18T15:41:58;100580.06;;;15.61;48.78
8051;BME280;4068;42.158;24.732;2022-10-18T15:44:49;100583.47;;;15.42;49.60
8051;BME280;4068;42.158;24.732;2022-10-18T15:47:17;100580.59;;;15.34;50.22
8051;BME280;4068;42.158;24.732;2022-10-18T15:49:55;100578.22;;;15.19;51.05
8051;BME280;4068;42.158;24.732;2022-10-18T15:52:28;100581.38;;;15.13;52.03
8051;BME280;4068;42.158;24.732;2022-10-18T15:54:55;100584.22;;;15.00;52.89
8051;BME280;4068;42.158;24.732;2022-10-18T15:57:22;100541.72;;;14.76;54.17